sensor_id;sensor_type;location;lat;lon;timestamp;temperature;humidity
33139;DHT22;19501;50.948;5.316;2023-07-29T00:00:27;20.90;99.90
33139;DHT22;19501;50.948;5.316;2023-07-29T00:02:53;20.90;99.90
33139;DHT22;19501;50.948;5.316;2023-07-29T00:05:19;21.00;99.90
33139;DHT22;19501;50.948;5.316;2023-07-29T00:07:44;21.10;99.90
33139;DHT22;19501;50.948;5.316;2023-07-29T00:10:12;21.10;99.90
33139;DHT22;19501;50.948;5.316;2023-07-29T00:12:38;21.10;99.90
33139;DHT22;19501;50.948;5.316;2023-07-29T00:15:04;20.90;99.90
33139;DHT22;19501;50.948;5.316;2023-07-29T00:17:30;20.60;99.90
33139;DHT22;19501;50.948;5.316;2023-07-29T00:19:55;20.50;99.90
33139;DHT22;19501;50.948;5.316;2023-07-29T00:22:21;20.50;99.90
33139;DHT22;19501;50.948;5.316;2023-07-29T00:24:52;20.40;99.90
33139;DHT22;19501;50.948;5.316;2023-07-29T00:27:20;20.30;99.90
33139;DHT22;19501;50.948;5.316;2023-07-29T00:29:45;20.40;99.90
33139;DHT22;19501;50.948;5.316;2023-07-29T00:32:11;20.30;99.90
33139;DHT22;19501;50.948;5.316;2023-07-29T00:34:37;20.20;99.90
33139;DHT22;19501;50.948;5.316;2023-07-29T00:37:02;20.10;99.90
33139;DHT22;19501;50.948;5.316;2023-07-29T00:39:28;20.20;99.90
33139;DHT22;19501;50.948;5.316;2023-07-29T00:41:54;20.20;99.90
33139;DHT22;19501;50.948;5.316;2023-07-29T00:44:19;20.20;99.90
33139;DHT22;19501;50.948;5.316;2023-07-29T00:46:46;20.10;99.90
33139;DHT22;19501;50.948;5.316;2023-07-29T00:49:13;20.00;99.90
33139;DHT22;19501;50.948;5.316;2023-07-29T00:51:39;20.00;99.90
33139;DHT22;19501;50.948;5.316;2023-07-29T00:54:05;20.00;99.90
33139;DHT22;19501;50.948;5.316;2023-07-29T00:56:30;19.90;99.90
33139;DHT22;19501;50.948;5.316;2023-07-29T00:58:56;19.90;99.90
33139;DHT22;19501;50.948;5.316;2023-07-29T01:01:25;19.90;99.90
33139;DHT22;19501;50.948;5.316;2023-07-29T01:03:51;19.90;99.90
33139;DHT22;19501;50.948;5.316;2023-07-29T01:18:08;19.70;99.90
33139;DHT22;19501;50.948;5.316;2023-07-29T01:20:40;19.80;99.90
33139;DHT22;19501;50.948;5.316;2023-07-29T01:23:06;19.80;99.90
33139;DHT22;19501;50.948;5.316;2023-07-29T01:25:31;19.80;99.90
33139;DHT22;19501;50.948;5.316;2023-07-29T01:27:57;19.80;99.90
33139;DHT22;19501;50.948;5.316;2023-07-29T01:30:29;19.80;99.90
33139;DHT22;19501;50.948;5.316;2023-07-29T01:33:09;19.80;99.90
33139;DHT22;19501;50.948;5.316;2023-07-29T01:36:09;19.90;99.90
33139;DHT22;19501;50.948;5.316;2023-07-29T01:38:38;20.00;99.90
33139;DHT22;19501;50.948;5.316;2023-07-29T01:41:08;20.10;99.90
33139;DHT22;19501;50.948;5.316;2023-07-29T01:43:34;20.00;99.90
33139;DHT22;19501;50.948;5.316;2023-07-29T01:46:09;19.90;99.90
33139;DHT22;19501;50.948;5.316;2023-07-29T01:48:35;20.00;99.90
33139;DHT22;19501;50.948;5.316;2023-07-29T01:51:00;20.00;99.90
33139;DHT22;19501;50.948;5.316;2023-07-29T01:53:26;19.90;99.90
33139;DHT22;19501;50.948;5.316;2023-07-29T01:55:52;19.90;99.90
33139;DHT22;19501;50.948;5.316;2023-07-29T01:58:17;19.90;99.90
33139;DHT22;19501;50.948;5.316;2023-07-29T02:00:43;19.70;99.90
33139;DHT22;19501;50.948;5.316;2023-07-29T02:03:08;19.60;99.90
33139;DHT22;19501;50.948;5.316;2023-07-29T02:05:37;19.60;99.90
33139;DHT22;19501;50.948;5.316;2023-07-29T02:08:02;19.50;99.90
33139;DHT22;19501;50.948;5.316;2023-07-29T02:10:28;19.60;99.90
33139;DHT22;19501;50.948;5.316;2023-07-29T02:12:54;19.40;99.90
33139;DHT22;19501;50.948;5.316;2023-07-29T02:15:20;19.40;99.90
33139;DHT22;19501;50.948;5.316;2023-07-29T02:17:45;19.40;99.90
33139;DHT22;19501;50.948;5.316;2023-07-29T02:20:11;19.50;99.90
33139;DHT22;19501;50.948;5.316;2023-07-29T02:22:37;19.40;99.90
33139;DHT22;19501;50.948;5.316;2023-07-29T02:25:03;19.50;99.90
33139;DHT22;19501;50.948;5.316;2023-07-29T02:27:31;19.50;99.90
33139;DHT22;19501;50.948;5.316;2023-07-29T02:29:57;19.50;99.90
33139;DHT22;19501;50.948;5.316;2023-07-29T02:32:22;19.40;99.90
33139;DHT22;19501;50.948;5.316;2023-07-29T02:34:48;19.40;99.90
33139;DHT22;19501;50.948;5.316;2023-07-29T02:37:14;19.30;99.90
33139;DHT22;19501;50.948;5.316;2023-07-29T02:39:40;19.40;99.90
33139;DHT22;19501;50.948;5.316;2023-07-29T02:42:05;19.30;99.90
33139;DHT22;19501;50.948;5.316;2023-07-29T02:44:31;19.30;99.90
33139;DHT22;19501;50.948;5.316;2023-07-29T02:46:59;19.20;99.90
33139;DHT22;19501;50.948;5.316;2023-07-29T02:49:25;19.20;99.90
33139;DHT22;19501;50.948;5.316;2023-07-29T02:51:51;19.20;99.90
33139;DHT22;19501;50.948;5.316;2023-07-29T02:54:16;19.30;99.90
33139;DHT22;19501;50.948;5.316;2023-07-29T02:56:42;19.30;99.90
33139;DHT22;19501;50.948;5.316;2023-07-29T02:59:08;19.30;99.90
33139;DHT22;19501;50.948;5.316;2023-07-29T03:01:34;19.20;99.90
33139;DHT22;19501;50.948;5.316;2023-07-29T03:03:59;18.90;99.90
33139;DHT22;19501;50.948;5.316;2023-07-29T03:06:25;18.70;99.90
33139;DHT22;19501;50.948;5.316;2023-07-29T03:08:51;18.70;99.90
33139;DHT22;19501;50.948;5.316;2023-07-29T03:11:19;18.90;99.90
33139;DHT22;19501;50.948;5.316;2023-07-29T03:13:45;19.00;99.90
33139;DHT22;19501;50.948;5.316;2023-07-29T03:18:41;18.80;99.90
33139;DHT22;19501;50.948;5.316;2023-07-29T03:21:07;18.70;99.90
33139;DHT22;19501;50.948;5.316;2023-07-29T03:23:33;18.60;99.90
33139;DHT22;19501;50.948;5.316;2023-07-29T03:26:01;18.50;99.90
33139;DHT22;19501;50.948;5.316;2023-07-29T03:28:28;18.30;99.90
33139;DHT22;19501;50.948;5.316;2023-07-29T03:30:57;18.10;99.90
33139;DHT22;19501;50.948;5.316;2023-07-29T03:33:25;18.20;99.90
33139;DHT22;19501;50.948;5.316;2023-07-29T03:35:52;18.30;99.90
33139;DHT22;19501;50.948;5.316;2023-07-29T03:38:17;18.20;99.90
33139;DHT22;19501;50.948;5.316;2023-07-29T03:40:44;18.40;99.90
33139;DHT22;19501;50.948;5.316;2023-07-29T03:43:12;18.40;99.90
33139;DHT22;19501;50.948;5.316;2023-07-29T03:45:39;18.40;99.90
33139;DHT22;19501;50.948;5.316;2023-07-29T03:48:05;18.30;99.90
33139;DHT22;19501;50.948;5.316;2023-07-29T03:50:32;18.30;99.90
33139;DHT22;19501;50.948;5.316;2023-07-29T03:52:58;18.40;99.90
33139;DHT22;19501;50.948;5.316;2023-07-29T03:55:26;18.40;99.90
33139;DHT22;19501;50.948;5.316;2023-07-29T03:57:52;18.40;99.90
33139;DHT22;19501;50.948;5.316;2023-07-29T04:00:17;18.40;99.90
33139;DHT22;19501;50.948;5.316;2023-07-29T04:02:44;18.40;99.90
33139;DHT22;19501;50.948;5.316;2023-07-29T04:05:11;18.30;99.90
33139;DHT22;19501;50.948;5.316;2023-07-29T04:07:37;18.40;99.90
33139;DHT22;19501;50.948;5.316;2023-07-29T04:10:03;18.30;99.90
33139;DHT22;19501;50.948;5.316;2023-07-29T04:12:30;18.20;99.90
33139;DHT22;19501;50.948;5.316;2023-07-29T04:14:55;18.20;99.90
33139;DHT22;19501;50.948;5.316;2023-07-29T04:17:21;18.10;99.90
33139;DHT22;19501;50.948;5.316;2023-07-29T04:19:47;17.90;99.90
33139;DHT22;19501;50.948;5.316;2023-07-29T04:22:13;17.90;99.90
33139;DHT22;19501;50.948;5.316;2023-07-29T04:24:39;17.90;99.90
33139;DHT22;19501;50.948;5.316;2023-07-29T04:27:05;18.10;99.90
33139;DHT22;19501;50.948;5.316;2023-07-29T04:29:31;18.20;99.90
33139;DHT22;19501;50.948;5.316;2023-07-29T04:31:56;18.20;99.90
33139;DHT22;19501;50.948;5.316;2023-07-29T04:34:22;18.10;99.90
33139;DHT22;19501;50.948;5.316;2023-07-29T04:36:48;18.10;99.90
33139;DHT22;19501;50.948;5.316;2023-07-29T04:39:14;18.20;99.90
33139;DHT22;19501;50.948;5.316;2023-07-29T04:41:40;18.30;99.90
33139;DHT22;19501;50.948;5.316;2023-07-29T04:44:06;18.30;99.90
33139;DHT22;19501;50.948;5.316;2023-07-29T04:46:36;18.30;99.90
33139;DHT22;19501;50.948;5.316;2023-07-29T04:49:02;18.20;99.90
33139;DHT22;19501;50.948;5.316;2023-07-29T04:51:28;18.10;99.90
33139;DHT22;19501;50.948;5.316;2023-07-29T04:53:54;18.20;99.90
33139;DHT22;19501;50.948;5.316;2023-07-29T04:56:19;18.30;99.90
33139;DHT22;19501;50.948;5.316;2023-07-29T04:58:45;18.20;99.90
33139;DHT22;19501;50.948;5.316;2023-07-29T05:01:11;18.20;99.90
33139;DHT22;19501;50.948;5.316;2023-07-29T05:03:36;18.20;99.90
33139;DHT22;19501;50.948;5.316;2023-07-29T05:06:03;18.20;99.90
33139;DHT22;19501;50.948;5.316;2023-07-29T05:08:29;18.10;99.90
33139;DHT22;19501;50.948;5.316;2023-07-29T05:10:55;18.10;99.90
33139;DHT22;19501;50.948;5.316;2023-07-29T05:13:22;18.10;99.90
33139;DHT22;19501;50.948;5.316;2023-07-29T05:15:48;18.20;99.90
33139;DHT22;19501;50.948;5.316;2023-07-29T05:18:15;18.20;99.90
33139;DHT22;19501;50.948;5.316;2023-07-29T05:20:41;18.30;99.90
33139;DHT22;19501;50.948;5.316;2023-07-29T05:23:06;18.20;99.90
33139;DHT22;19501;50.948;5.316;2023-07-29T05:25:35;18.20;99.90
33139;DHT22;19501;50.948;5.316;2023-07-29T05:28:01;18.20;99.90
33139;DHT22;19501;50.948;5.316;2023-07-29T05:30:28;18.50;99.90
33139;DHT22;19501;50.948;5.316;2023-07-29T05:32:57;18.30;99.90
33139;DHT22;19501;50.948;5.316;2023-07-29T05:35:23;18.50;99.90
33139;DHT22;19501;50.948;5.316;2023-07-29T05:37:48;18.50;99.90
33139;DHT22;19501;50.948;5.316;2023-07-29T05:40:14;18.60;99.90
33139;DHT22;19501;50.948;5.316;2023-07-29T05:42:42;18.60;99.90
33139;DHT22;19501;50.948;5.316;2023-07-29T05:45:08;18.50;99.90
33139;DHT22;19501;50.948;5.316;2023-07-29T05:47:34;18.50;99.90
33139;DHT22;19501;50.948;5.316;2023-07-29T05:50:00;18.40;99.90
33139;DHT22;19501;50.948;5.316;2023-07-29T05:52:32;18.60;99.90
33139;DHT22;19501;50.948;5.316;2023-07-29T05:54:58;18.40;99.90
33139;DHT22;19501;50.948;5.316;2023-07-29T05:57:24;18.20;99.90
33139;DHT22;19501;50.948;5.316;2023-07-29T05:59:50;18.00;99.90
33139;DHT22;19501;50.948;5.316;2023-07-29T06:02:17;18.00;99.90
33139;DHT22;19501;50.948;5.316;2023-07-29T06:04:43;18.10;99.90
33139;DHT22;19501;50.948;5.316;2023-07-29T06:07:09;18.20;99.90
33139;DHT22;19501;50.948;5.316;2023-07-29T06:09:35;18.20;99.90
33139;DHT22;19501;50.948;5.316;2023-07-29T06:12:01;18.00;99.90
33139;DHT22;19501;50.948;5.316;2023-07-29T06:14:26;18.10;99.90
33139;DHT22;19501;50.948;5.316;2023-07-29T06:16:52;18.20;99.90
33139;DHT22;19501;50.948;5.316;2023-07-29T06:19:19;18.30;99.90
33139;DHT22;19501;50.948;5.316;2023-07-29T06:21:47;18.40;99.90
33139;DHT22;19501;50.948;5.316;2023-07-29T06:24:13;18.40;99.90
33139;DHT22;19501;50.948;5.316;2023-07-29T06:26:39;18.40;99.90
33139;DHT22;19501;50.948;5.316;2023-07-29T06:29:04;18.40;99.90
33139;DHT22;19501;50.948;5.316;2023-07-29T06:31:30;18.30;99.90
33139;DHT22;19501;50.948;5.316;2023-07-29T06:33:58;18.30;99.90
33139;DHT22;19501;50.948;5.316;2023-07-29T06:36:23;18.30;99.90
33139;DHT22;19501;50.948;5.316;2023-07-29T06:38:49;18.40;99.90
33139;DHT22;19501;50.948;5.316;2023-07-29T06:41:15;18.40;99.90
33139;DHT22;19501;50.948;5.316;2023-07-29T06:43:42;18.40;99.90
33139;DHT22;19501;50.948;5.316;2023-07-29T06:46:07;18.40;99.90
33139;DHT22;19501;50.948;5.316;2023-07-29T06:48:33;18.60;99.90
33139;DHT22;19501;50.948;5.316;2023-07-29T06:50:59;18.50;99.90
33139;DHT22;19501;50.948;5.316;2023-07-29T06:53:26;18.70;99.90
33139;DHT22;19501;50.948;5.316;2023-07-29T06:55:52;18.70;99.90
33139;DHT22;19501;50.948;5.316;2023-07-29T06:58:21;18.90;99.90
33139;DHT22;19501;50.948;5.316;2023-07-29T07:00:46;19.10;99.90
33139;DHT22;19501;50.948;5.316;2023-07-29T07:03:12;19.20;99.90
33139;DHT22;19501;50.948;5.316;2023-07-29T07:05:40;19.30;99.90
33139;DHT22;19501;50.948;5.316;2023-07-29T07:08:05;19.40;99.90
33139;DHT22;19501;50.948;5.316;2023-07-29T07:10:34;19.60;99.90
33139;DHT22;19501;50.948;5.316;2023-07-29T07:13:00;19.80;99.90
33139;DHT22;19501;50.948;5.316;2023-07-29T07:15:25;19.90;99.90
33139;DHT22;19501;50.948;5.316;2023-07-29T07:17:51;20.10;99.90
33139;DHT22;19501;50.948;5.316;2023-07-29T07:20:17;20.10;99.90
33139;DHT22;19501;50.948;5.316;2023-07-29T07:22:43;20.00;99.90
33139;DHT22;19501;50.948;5.316;2023-07-29T07:25:11;19.90;99.90
33139;DHT22;19501;50.948;5.316;2023-07-29T07:27:37;20.00;99.90
33139;DHT22;19501;50.948;5.316;2023-07-29T07:30:03;19.90;99.90
33139;DHT22;19501;50.948;5.316;2023-07-29T07:32:29;20.00;99.90
33139;DHT22;19501;50.948;5.316;2023-07-29T07:34:54;19.80;99.90
33139;DHT22;19501;50.948;5.316;2023-07-29T07:37:20;19.80;99.90
33139;DHT22;19501;50.948;5.316;2023-07-29T07:39:46;19.70;99.90
33139;DHT22;19501;50.948;5.316;2023-07-29T07:42:12;19.70;99.90
33139;DHT22;19501;50.948;5.316;2023-07-29T07:44:37;20.00;99.90
33139;DHT22;19501;50.948;5.316;2023-07-29T07:47:03;20.40;99.90
33139;DHT22;19501;50.948;5.316;2023-07-29T07:49:29;20.60;99.90
33139;DHT22;19501;50.948;5.316;2023-07-29T07:51:54;20.60;99.90
33139;DHT22;19501;50.948;5.316;2023-07-29T07:54:20;20.50;99.90
33139;DHT22;19501;50.948;5.316;2023-07-29T07:56:46;20.20;99.90
33139;DHT22;19501;50.948;5.316;2023-07-29T07:59:11;20.00;99.90
33139;DHT22;19501;50.948;5.316;2023-07-29T08:01:38;19.90;99.90
33139;DHT22;19501;50.948;5.316;2023-07-29T08:04:05;20.10;99.90
33139;DHT22;19501;50.948;5.316;2023-07-29T08:06:31;20.30;99.90
33139;DHT22;19501;50.948;5.316;2023-07-29T08:08:57;20.20;99.90
33139;DHT22;19501;50.948;5.316;2023-07-29T08:11:25;20.40;99.90
33139;DHT22;19501;50.948;5.316;2023-07-29T08:13:51;20.50;99.90
33139;DHT22;19501;50.948;5.316;2023-07-29T08:16:16;20.80;99.90
33139;DHT22;19501;50.948;5.316;2023-07-29T08:18:42;20.90;99.90
33139;DHT22;19501;50.948;5.316;2023-07-29T08:21:08;20.80;99.90
33139;DHT22;19501;50.948;5.316;2023-07-29T08:23:34;20.80;99.90
33139;DHT22;19501;50.948;5.316;2023-07-29T08:26:03;20.60;99.90
33139;DHT22;19501;50.948;5.316;2023-07-29T08:28:35;20.60;99.90
33139;DHT22;19501;50.948;5.316;2023-07-29T08:31:01;20.80;99.90
33139;DHT22;19501;50.948;5.316;2023-07-29T08:33:27;20.60;99.90
33139;DHT22;19501;50.948;5.316;2023-07-29T08:35:53;20.60;99.90
33139;DHT22;19501;50.948;5.316;2023-07-29T08:38:19;20.70;99.90
33139;DHT22;19501;50.948;5.316;2023-07-29T08:40:53;20.90;99.90
33139;DHT22;19501;50.948;5.316;2023-07-29T08:43:20;21.10;99.90
33139;DHT22;19501;50.948;5.316;2023-07-29T08:45:48;21.30;99.90
33139;DHT22;19501;50.948;5.316;2023-07-29T08:48:19;21.40;99.90
33139;DHT22;19501;50.948;5.316;2023-07-29T08:50:46;21.50;99.90
33139;DHT22;19501;50.948;5.316;2023-07-29T08:53:13;21.60;99.90
33139;DHT22;19501;50.948;5.316;2023-07-29T08:55:39;21.50;99.90
33139;DHT22;19501;50.948;5.316;2023-07-29T08:58:05;21.70;99.90
33139;DHT22;19501;50.948;5.316;2023-07-29T09:00:31;21.80;99.90
33139;DHT22;19501;50.948;5.316;2023-07-29T09:02:57;21.90;99.90
33139;DHT22;19501;50.948;5.316;2023-07-29T09:05:27;22.10;99.90
33139;DHT22;19501;50.948;5.316;2023-07-29T09:07:53;22.10;99.90
33139;DHT22;19501;50.948;5.316;2023-07-29T09:10:21;22.10;99.90
33139;DHT22;19501;50.948;5.316;2023-07-29T09:12:49;22.20;99.90
33139;DHT22;19501;50.948;5.316;2023-07-29T09:15:27;22.30;99.90
33139;DHT22;19501;50.948;5.316;2023-07-29T09:17:53;22.10;99.90
33139;DHT22;19501;50.948;5.316;2023-07-29T09:20:24;22.10;99.90
33139;DHT22;19501;50.948;5.316;2023-07-29T09:22:50;22.20;99.90
33139;DHT22;19501;50.948;5.316;2023-07-29T09:25:16;22.30;99.90
33139;DHT22;19501;50.948;5.316;2023-07-29T09:27:42;22.30;99.90
33139;DHT22;19501;50.948;5.316;2023-07-29T09:30:17;22.40;99.90
33139;DHT22;19501;50.948;5.316;2023-07-29T09:32:42;22.30;99.90
33139;DHT22;19501;50.948;5.316;2023-07-29T09:35:11;22.10;99.90
33139;DHT22;19501;50.948;5.316;2023-07-29T09:37:40;21.70;99.90
33139;DHT22;19501;50.948;5.316;2023-07-29T09:40:14;21.60;99.90
33139;DHT22;19501;50.948;5.316;2023-07-29T09:42:50;21.80;99.90
33139;DHT22;19501;50.948;5.316;2023-07-29T09:45:24;21.90;99.90
33139;DHT22;19501;50.948;5.316;2023-07-29T09:47:51;21.90;99.90
33139;DHT22;19501;50.948;5.316;2023-07-29T09:50:17;21.90;99.90
33139;DHT22;19501;50.948;5.316;2023-07-29T09:52:43;21.80;99.90
33139;DHT22;19501;50.948;5.316;2023-07-29T09:55:12;21.90;99.90
33139;DHT22;19501;50.948;5.316;2023-07-29T09:57:40;22.30;99.90
33139;DHT22;19501;50.948;5.316;2023-07-29T10:00:06;22.50;99.90
33139;DHT22;19501;50.948;5.316;2023-07-29T10:02:41;22.60;99.90
33139;DHT22;19501;50.948;5.316;2023-07-29T10:05:08;23.10;99.90
33139;DHT22;19501;50.948;5.316;2023-07-29T10:07:39;23.60;99.90
33139;DHT22;19501;50.948;5.316;2023-07-29T10:10:06;23.40;99.90
33139;DHT22;19501;50.948;5.316;2023-07-29T10:12:33;23.10;99.90
33139;DHT22;19501;50.948;5.316;2023-07-29T10:15:00;23.20;99.90
33139;DHT22;19501;50.948;5.316;2023-07-29T10:17:27;23.10;99.90
33139;DHT22;19501;50.948;5.316;2023-07-29T10:19:54;23.00;99.90
33139;DHT22;19501;50.948;5.316;2023-07-29T10:22:21;23.10;99.90
33139;DHT22;19501;50.948;5.316;2023-07-29T10:24:51;23.10;99.90
33139;DHT22;19501;50.948;5.316;2023-07-29T10:27:19;23.00;99.90
33139;DHT22;19501;50.948;5.316;2023-07-29T10:29:46;23.20;99.90
33139;DHT22;19501;50.948;5.316;2023-07-29T10:32:13;23.50;99.90
33139;DHT22;19501;50.948;5.316;2023-07-29T10:34:39;23.80;99.90
33139;DHT22;19501;50.948;5.316;2023-07-29T10:37:05;24.10;99.90
33139;DHT22;19501;50.948;5.316;2023-07-29T10:39:39;24.10;99.90
33139;DHT22;19501;50.948;5.316;2023-07-29T10:42:06;24.20;99.90
33139;DHT22;19501;50.948;5.316;2023-07-29T10:47:22;24.70;99.90
33139;DHT22;19501;50.948;5.316;2023-07-29T10:49:51;24.70;99.90
33139;DHT22;19501;50.948;5.316;2023-07-29T10:55:01;24.30;99.90
33139;DHT22;19501;50.948;5.316;2023-07-29T10:57:36;23.90;99.90
33139;DHT22;19501;50.948;5.316;2023-07-29T11:00:03;23.50;99.90
33139;DHT22;19501;50.948;5.316;2023-07-29T11:02:31;23.10;99.90
33139;DHT22;19501;50.948;5.316;2023-07-29T11:04:58;22.80;99.90
33139;DHT22;19501;50.948;5.316;2023-07-29T11:07:27;22.40;99.90
33139;DHT22;19501;50.948;5.316;2023-07-29T11:15:14;21.90;99.90
33139;DHT22;19501;50.948;5.316;2023-07-29T11:17:49;22.00;99.90
33139;DHT22;19501;50.948;5.316;2023-07-29T11:20:16;22.10;99.90
33139;DHT22;19501;50.948;5.316;2023-07-29T11:22:43;22.10;99.90
33139;DHT22;19501;50.948;5.316;2023-07-29T11:25:11;22.10;99.90
33139;DHT22;19501;50.948;5.316;2023-07-29T11:27:37;22.00;99.90
33139;DHT22;19501;50.948;5.316;2023-07-29T11:30:05;21.90;99.90
33139;DHT22;19501;50.948;5.316;2023-07-29T11:32:31;21.70;99.90
33139;DHT22;19501;50.948;5.316;2023-07-29T11:35:05;21.20;99.90
33139;DHT22;19501;50.948;5.316;2023-07-29T11:37:33;20.70;99.90
33139;DHT22;19501;50.948;5.316;2023-07-29T11:39:59;20.30;99.90
33139;DHT22;19501;50.948;5.316;2023-07-29T11:42:28;20.20;99.90
33139;DHT22;19501;50.948;5.316;2023-07-29T11:44:57;20.10;99.90
33139;DHT22;19501;50.948;5.316;2023-07-29T11:47:23;20.20;99.90
33139;DHT22;19501;50.948;5.316;2023-07-29T11:49:49;20.30;99.90
33139;DHT22;19501;50.948;5.316;2023-07-29T11:52:15;20.30;99.90
33139;DHT22;19501;50.948;5.316;2023-07-29T11:54:45;20.20;99.90
33139;DHT22;19501;50.948;5.316;2023-07-29T11:57:10;20.20;99.90
33139;DHT22;19501;50.948;5.316;2023-07-29T11:59:37;20.30;99.90
33139;DHT22;19501;50.948;5.316;2023-07-29T12:02:23;20.30;99.90
33139;DHT22;19501;50.948;5.316;2023-07-29T12:04:50;20.20;99.90
33139;DHT22;19501;50.948;5.316;2023-07-29T12:07:17;20.10;99.90
33139;DHT22;19501;50.948;5.316;2023-07-29T12:09:44;20.10;99.90
33139;DHT22;19501;50.948;5.316;2023-07-29T12:12:10;20.00;99.90
33139;DHT22;19501;50.948;5.316;2023-07-29T12:14:36;19.90;99.90
33139;DHT22;19501;50.948;5.316;2023-07-29T12:17:06;20.00;99.90
33139;DHT22;19501;50.948;5.316;2023-07-29T12:19:39;20.10;99.90
33139;DHT22;19501;50.948;5.316;2023-07-29T12:22:07;20.30;99.90
33139;DHT22;19501;50.948;5.316;2023-07-29T12:24:36;20.10;99.90
33139;DHT22;19501;50.948;5.316;2023-07-29T12:27:02;20.20;99.90
33139;DHT22;19501;50.948;5.316;2023-07-29T12:29:28;20.20;99.90
33139;DHT22;19501;50.948;5.316;2023-07-29T12:31:59;20.20;99.90
33139;DHT22;19501;50.948;5.316;2023-07-29T12:34:25;20.20;99.90
33139;DHT22;19501;50.948;5.316;2023-07-29T12:36:55;19.80;99.90
33139;DHT22;19501;50.948;5.316;2023-07-29T12:39:28;19.50;99.90
33139;DHT22;19501;50.948;5.316;2023-07-29T12:41:56;19.30;99.90
33139;DHT22;19501;50.948;5.316;2023-07-29T12:44:33;19.20;99.90
33139;DHT22;19501;50.948;5.316;2023-07-29T12:47:01;19.30;99.90
33139;DHT22;19501;50.948;5.316;2023-07-29T12:49:28;19.60;99.90
33139;DHT22;19501;50.948;5.316;2023-07-29T12:51:55;20.10;99.90
33139;DHT22;19501;50.948;5.316;2023-07-29T12:54:21;21.10;99.90
33139;DHT22;19501;50.948;5.316;2023-07-29T12:56:46;21.10;99.90
33139;DHT22;19501;50.948;5.316;2023-07-29T12:59:12;21.20;99.90
33139;DHT22;19501;50.948;5.316;2023-07-29T13:01:38;22.00;99.90
33139;DHT22;19501;50.948;5.316;2023-07-29T13:04:04;22.70;99.90
33139;DHT22;19501;50.948;5.316;2023-07-29T13:06:29;22.80;99.90
33139;DHT22;19501;50.948;5.316;2023-07-29T13:08:56;22.50;99.90
33139;DHT22;19501;50.948;5.316;2023-07-29T13:11:21;22.00;99.90
33139;DHT22;19501;50.948;5.316;2023-07-29T13:13:47;21.80;99.90
33139;DHT22;19501;50.948;5.316;2023-07-29T13:16:13;21.40;99.90
33139;DHT22;19501;50.948;5.316;2023-07-29T13:18:39;21.10;99.90
33139;DHT22;19501;50.948;5.316;2023-07-29T13:21:05;21.40;99.90
33139;DHT22;19501;50.948;5.316;2023-07-29T13:23:30;21.50;99.90
33139;DHT22;19501;50.948;5.316;2023-07-29T13:25:57;21.30;99.90
33139;DHT22;19501;50.948;5.316;2023-07-29T13:28:23;21.10;99.90
33139;DHT22;19501;50.948;5.316;2023-07-29T13:30:49;20.90;99.90
33139;DHT22;19501;50.948;5.316;2023-07-29T13:33:14;20.80;99.90
33139;DHT22;19501;50.948;5.316;2023-07-29T13:35:40;20.60;99.90
33139;DHT22;19501;50.948;5.316;2023-07-29T13:38:06;20.40;99.90
33139;DHT22;19501;50.948;5.316;2023-07-29T13:40:32;20.20;99.90
33139;DHT22;19501;50.948;5.316;2023-07-29T13:42:57;20.00;99.90
33139;DHT22;19501;50.948;5.316;2023-07-29T13:45:23;19.80;99.90
33139;DHT22;19501;50.948;5.316;2023-07-29T13:47:49;19.70;99.90
33139;DHT22;19501;50.948;5.316;2023-07-29T13:50:16;19.70;99.90
33139;DHT22;19501;50.948;5.316;2023-07-29T13:52:41;19.80;99.90
33139;DHT22;19501;50.948;5.316;2023-07-29T13:55:07;20.10;99.90
33139;DHT22;19501;50.948;5.316;2023-07-29T13:57:33;20.70;99.90
33139;DHT22;19501;50.948;5.316;2023-07-29T13:59:59;21.30;99.90
33139;DHT22;19501;50.948;5.316;2023-07-29T14:02:25;22.20;99.90
33139;DHT22;19501;50.948;5.316;2023-07-29T14:04:54;22.50;99.90
33139;DHT22;19501;50.948;5.316;2023-07-29T14:07:19;23.20;99.90
33139;DHT22;19501;50.948;5.316;2023-07-29T14:09:46;23.50;99.90
33139;DHT22;19501;50.948;5.316;2023-07-29T14:12:12;23.90;99.90
33139;DHT22;19501;50.948;5.316;2023-07-29T14:14:40;23.90;99.90
33139;DHT22;19501;50.948;5.316;2023-07-29T14:17:06;23.80;99.90
33139;DHT22;19501;50.948;5.316;2023-07-29T14:19:34;23.60;99.90
33139;DHT22;19501;50.948;5.316;2023-07-29T14:21:59;23.50;99.90
33139;DHT22;19501;50.948;5.316;2023-07-29T14:24:25;23.70;99.90
33139;DHT22;19501;50.948;5.316;2023-07-29T14:26:51;23.60;99.90
33139;DHT22;19501;50.948;5.316;2023-07-29T14:29:17;23.50;99.90
33139;DHT22;19501;50.948;5.316;2023-07-29T14:31:42;23.70;99.90
33139;DHT22;19501;50.948;5.316;2023-07-29T14:34:09;23.50;99.90
33139;DHT22;19501;50.948;5.316;2023-07-29T14:36:35;23.10;99.90
33139;DHT22;19501;50.948;5.316;2023-07-29T14:39:00;23.40;99.90
33139;DHT22;19501;50.948;5.316;2023-07-29T14:41:26;23.30;99.90
33139;DHT22;19501;50.948;5.316;2023-07-29T14:43:52;23.50;99.90
33139;DHT22;19501;50.948;5.316;2023-07-29T14:46:17;23.30;99.90
33139;DHT22;19501;50.948;5.316;2023-07-29T14:48:43;23.30;99.90
33139;DHT22;19501;50.948;5.316;2023-07-29T14:51:09;23.80;99.90
33139;DHT22;19501;50.948;5.316;2023-07-29T14:53:34;24.10;99.90
33139;DHT22;19501;50.948;5.316;2023-07-29T14:56:00;23.90;99.90
33139;DHT22;19501;50.948;5.316;2023-07-29T14:58:26;23.20;99.90
33139;DHT22;19501;50.948;5.316;2023-07-29T15:00:52;22.70;99.90
33139;DHT22;19501;50.948;5.316;2023-07-29T15:03:17;22.50;99.90
33139;DHT22;19501;50.948;5.316;2023-07-29T15:05:43;22.50;99.90
33139;DHT22;19501;50.948;5.316;2023-07-29T15:08:09;22.30;99.90
33139;DHT22;19501;50.948;5.316;2023-07-29T15:10:35;22.00;99.90
33139;DHT22;19501;50.948;5.316;2023-07-29T15:13:03;21.80;99.90
33139;DHT22;19501;50.948;5.316;2023-07-29T15:15:29;21.70;99.90
33139;DHT22;19501;50.948;5.316;2023-07-29T15:17:57;21.50;99.90
33139;DHT22;19501;50.948;5.316;2023-07-29T15:20:23;21.40;99.90
33139;DHT22;19501;50.948;5.316;2023-07-29T15:22:49;21.50;99.90
33139;DHT22;19501;50.948;5.316;2023-07-29T15:25:14;21.80;99.90
33139;DHT22;19501;50.948;5.316;2023-07-29T15:27:40;22.00;99.90
33139;DHT22;19501;50.948;5.316;2023-07-29T15:30:07;22.30;99.90
33139;DHT22;19501;50.948;5.316;2023-07-29T15:32:32;22.60;99.90
33139;DHT22;19501;50.948;5.316;2023-07-29T15:34:58;22.80;99.90
33139;DHT22;19501;50.948;5.316;2023-07-29T15:37:27;22.80;99.90
33139;DHT22;19501;50.948;5.316;2023-07-29T15:39:53;22.80;99.90
33139;DHT22;19501;50.948;5.316;2023-07-29T15:42:19;23.00;99.90
33139;DHT22;19501;50.948;5.316;2023-07-29T15:44:44;23.40;99.90
33139;DHT22;19501;50.948;5.316;2023-07-29T15:47:10;23.70;99.90
33139;DHT22;19501;50.948;5.316;2023-07-29T15:49:38;23.80;99.90
33139;DHT22;19501;50.948;5.316;2023-07-29T15:52:04;23.70;99.90